createdAt,value
2023-05-20T00:00:25.774Z,57.41
2023-05-20T00:01:25.775Z,57.67
2023-05-20T00:02:25.910Z,55.29
2023-05-20T00:03:26.019Z,58.09
2023-05-20T00:04:25.918Z,56.22
2023-05-20T00:05:25.894Z,55.48
2023-05-20T00:06:25.913Z,55.26
2023-05-20T00:07:25.972Z,57.59
2023-05-20T00:08:26.019Z,56.94
2023-05-20T00:09:26.051Z,58.45
2023-05-20T00:10:26.050Z,54.49
2023-05-20T00:11:26.099Z,57.97
2023-05-20T00:12:26.112Z,57.98
2023-05-20T00:13:26.169Z,57.67
2023-05-20T00:14:26.226Z,54.92
2023-05-20T00:15:26.231Z,55.02
2023-05-20T00:16:26.324Z,56.49
2023-05-20T00:17:26.362Z,56.27
2023-05-20T00:18:26.398Z,56.51
2023-05-20T00:19:26.450Z,53.76
2023-05-20T00:20:26.440Z,59.17
2023-05-20T00:21:26.482Z,53.20
2023-05-20T00:22:26.512Z,56.11
2023-05-20T00:23:26.562Z,55.36
2023-05-20T00:24:26.619Z,56.44
2023-05-20T00:25:26.687Z,56.81
2023-05-20T00:26:26.725Z,59.01
2023-05-20T00:27:26.733Z,56.51
2023-05-20T00:28:26.803Z,54.68
2023-05-20T00:29:26.861Z,56.55
2023-05-20T00:30:26.881Z,53.87
2023-05-20T00:31:26.978Z,56.25
2023-05-20T00:32:27.213Z,55.67
2023-05-20T00:33:27.035Z,53.30
2023-05-20T00:34:27.046Z,56.50
2023-05-20T00:35:27.149Z,54.47
2023-05-20T00:36:27.159Z,55.31
2023-05-20T00:37:27.216Z,54.66
2023-05-20T00:38:27.219Z,55.95
2023-05-20T00:39:27.260Z,55.24
2023-05-20T00:40:27.314Z,56.80
2023-05-20T00:41:27.359Z,53.75
2023-05-20T00:42:27.403Z,54.84
2023-05-20T00:43:27.425Z,53.91
2023-05-20T00:44:27.501Z,54.18
2023-05-20T00:45:27.514Z,54.27
2023-05-20T00:46:27.625Z,54.05
2023-05-20T00:47:27.615Z,55.90
2023-05-20T00:48:27.629Z,57.38
2023-05-20T00:49:27.695Z,56.60
2023-05-20T00:50:27.712Z,54.51
2023-05-20T00:51:27.771Z,53.91
2023-05-20T00:52:27.789Z,52.78
2023-05-20T00:53:27.839Z,54.72
2023-05-20T00:54:27.891Z,54.39
2023-05-20T00:55:27.901Z,53.76
2023-05-20T00:56:27.960Z,52.61
2023-05-20T00:57:28.012Z,53.45
2023-05-20T00:58:28.061Z,53.76
2023-05-20T00:59:28.083Z,52.38
2023-05-20T01:00:28.156Z,54.09
2023-05-20T01:01:28.204Z,52.68
2023-05-20T01:02:28.279Z,55.80
2023-05-20T01:03:28.354Z,52.45
2023-05-20T01:04:28.242Z,53.69
2023-05-20T01:05:28.266Z,52.12
2023-05-20T01:06:28.306Z,52.55
2023-05-20T01:07:28.333Z,51.59
2023-05-20T01:08:28.382Z,51.91
2023-05-20T01:09:28.417Z,51.86
2023-05-20T01:10:28.448Z,54.14
2023-05-20T01:11:28.466Z,54.26
2023-05-20T01:12:28.516Z,51.40
2023-05-20T01:13:28.553Z,52.55
2023-05-20T01:14:28.579Z,54.28
2023-05-20T01:15:28.613Z,53.83
2023-05-20T01:16:28.676Z,54.16
2023-05-20T01:17:28.708Z,54.28
2023-05-20T01:18:28.694Z,50.85
2023-05-20T01:19:28.758Z,53.06
2023-05-20T01:20:28.757Z,51.97
2023-05-20T01:21:28.783Z,54.24
2023-05-20T01:22:28.812Z,51.14
2023-05-20T01:23:28.855Z,52.90
2023-05-20T01:24:28.893Z,54.56
2023-05-20T01:25:28.942Z,52.70
2023-05-20T01:26:28.968Z,51.34
2023-05-20T01:27:29.008Z,54.54
2023-05-20T01:28:29.040Z,53.85
2023-05-20T01:29:29.093Z,53.10
2023-05-20T01:30:29.141Z,55.96
2023-05-20T01:31:29.207Z,50.41
2023-05-20T01:32:29.257Z,50.82
2023-05-20T01:33:29.276Z,54.69
2023-05-20T01:34:29.304Z,50.82
2023-05-20T01:35:29.355Z,52.15
2023-05-20T01:36:29.374Z,49.76
2023-05-20T01:37:29.404Z,54.37
2023-05-20T01:38:29.470Z,50.54
2023-05-20T01:39:29.486Z,54.08
2023-05-20T01:40:29.507Z,55.55
2023-05-20T01:41:29.593Z,51.21
2023-05-20T01:42:29.661Z,51.44
2023-05-20T01:43:29.640Z,51.55
2023-05-20T01:44:29.678Z,52.81
2023-05-20T01:45:29.733Z,50.91
2023-05-20T01:46:29.861Z,52.80
2023-05-20T01:47:29.850Z,53.37
2023-05-20T01:48:29.866Z,49.82
2023-05-20T01:49:29.915Z,50.39
2023-05-20T01:50:29.978Z,51.95
2023-05-20T01:51:30.021Z,51.47
2023-05-20T01:52:30.067Z,52.38
2023-05-20T01:53:30.131Z,51.58
2023-05-20T01:54:30.177Z,52.32
2023-05-20T01:55:30.214Z,54.00
2023-05-20T01:56:30.262Z,50.92
2023-05-20T01:57:30.308Z,50.96
2023-05-20T01:58:30.341Z,50.94
2023-05-20T01:59:30.365Z,52.12
2023-05-20T02:00:30.390Z,53.67
2023-05-20T02:01:30.514Z,52.80
2023-05-20T02:02:30.554Z,51.33
2023-05-20T02:03:30.518Z,51.27
2023-05-20T02:04:30.510Z,48.88
2023-05-20T02:05:30.599Z,52.95
2023-05-20T02:06:30.629Z,51.26
2023-05-20T02:07:30.669Z,49.43
2023-05-20T02:08:30.673Z,49.78
2023-05-20T02:09:30.708Z,50.25
2023-05-20T02:10:30.745Z,50.39
2023-05-20T02:11:30.775Z,49.49
2023-05-20T02:12:30.824Z,49.34
2023-05-20T02:13:30.855Z,50.37
2023-05-20T02:14:30.877Z,49.79
2023-05-20T02:15:30.909Z,50.50
2023-05-20T02:16:30.971Z,50.38
2023-05-20T02:17:30.987Z,51.16
2023-05-20T02:18:30.976Z,51.32
2023-05-20T02:19:31.035Z,50.20
2023-05-20T02:20:31.022Z,47.35
2023-05-20T02:21:31.044Z,52.15
2023-05-20T02:22:31.070Z,50.42
2023-05-20T02:23:31.103Z,48.43
2023-05-20T02:24:31.122Z,50.08
2023-05-20T02:25:31.202Z,50.35
2023-05-20T02:26:31.208Z,47.45
2023-05-20T02:27:31.255Z,49.56
2023-05-20T02:28:31.308Z,49.68
2023-05-20T02:29:31.341Z,50.26
2023-05-20T02:30:31.370Z,49.27
2023-05-20T02:31:31.439Z,51.06
2023-05-20T02:32:31.497Z,49.47
2023-05-20T02:33:31.545Z,47.56
2023-05-20T02:34:31.687Z,51.03
2023-05-20T02:35:31.724Z,50.16
2023-05-20T02:36:31.705Z,47.62
2023-05-20T02:37:31.718Z,48.39
2023-05-20T02:38:31.766Z,50.67
2023-05-20T02:39:31.736Z,49.10
2023-05-20T02:40:31.795Z,47.92
2023-05-20T02:41:31.842Z,48.03
2023-05-20T02:42:31.868Z,47.41
2023-05-20T02:43:31.911Z,48.83
2023-05-20T02:44:31.923Z,46.65
2023-05-20T02:45:31.978Z,49.55
2023-05-20T02:46:32.084Z,49.67
2023-05-20T02:47:32.065Z,52.27
2023-05-20T02:48:32.064Z,47.77
2023-05-20T02:49:32.088Z,47.20
2023-05-20T02:50:32.124Z,48.08
2023-05-20T02:51:32.155Z,47.26
2023-05-20T02:52:32.277Z,48.60
2023-05-20T02:53:32.212Z,47.88
2023-05-20T02:54:32.263Z,48.17
2023-05-20T02:55:32.384Z,49.55
2023-05-20T02:56:32.346Z,46.76
2023-05-20T02:57:32.408Z,50.80
2023-05-20T02:58:32.454Z,47.55
2023-05-20T02:59:32.487Z,49.15
2023-05-20T03:00:32.532Z,49.09
2023-05-20T03:01:32.659Z,48.27
2023-05-20T03:02:32.657Z,48.96
2023-05-20T03:03:32.637Z,50.15
2023-05-20T03:04:32.753Z,50.67
2023-05-20T03:05:32.946Z,45.95
2023-05-20T03:06:32.765Z,45.42
2023-05-20T03:07:32.800Z,47.87
2023-05-20T03:08:32.834Z,46.78
2023-05-20T03:09:32.868Z,47.94
2023-05-20T03:10:32.905Z,48.46
2023-05-20T03:11:32.997Z,47.52
2023-05-20T03:12:32.984Z,47.28
2023-05-20T03:13:33.031Z,45.05
2023-05-20T03:14:33.058Z,47.11
2023-05-20T03:15:33.372Z,46.63
2023-05-20T03:16:33.221Z,45.87
2023-05-20T03:17:33.178Z,46.28
2023-05-20T03:18:33.222Z,46.71
2023-05-20T03:19:33.276Z,47.57
2023-05-20T03:20:33.229Z,46.82
2023-05-20T03:21:33.251Z,49.09
2023-05-20T03:22:33.245Z,47.75
2023-05-20T03:23:33.303Z,44.21
2023-05-20T03:24:33.335Z,47.07
2023-05-20T03:25:33.603Z,46.14
2023-05-20T03:26:33.406Z,45.61
2023-05-20T03:27:33.442Z,49.44
2023-05-20T03:28:33.441Z,44.76
2023-05-20T03:29:33.474Z,47.63
2023-05-20T03:30:33.495Z,46.80
2023-05-20T03:31:33.573Z,44.67
2023-05-20T03:32:33.593Z,46.36
2023-05-20T03:33:33.613Z,46.79
2023-05-20T03:34:33.664Z,46.80
2023-05-20T03:35:33.843Z,45.61
2023-05-20T03:36:33.726Z,50.03
2023-05-20T03:37:33.765Z,48.05
2023-05-20T03:38:33.830Z,47.26
2023-05-20T03:39:33.865Z,46.81
2023-05-20T03:40:34.017Z,47.41
2023-05-20T03:41:33.939Z,46.06
2023-05-20T03:42:33.984Z,44.09
2023-05-20T03:43:34.033Z,44.65
2023-05-20T03:44:34.062Z,48.22
2023-05-20T03:45:34.289Z,45.01
2023-05-20T03:46:34.193Z,46.20
2023-05-20T03:47:34.183Z,45.11
2023-05-20T03:48:34.175Z,47.17
2023-05-20T03:49:34.202Z,46.82
2023-05-20T03:50:34.257Z,45.97
2023-05-20T03:51:34.323Z,44.86
2023-05-20T03:52:34.350Z,48.80
2023-05-20T03:53:34.380Z,46.56
2023-05-20T03:54:34.390Z,47.84
2023-05-20T03:55:34.630Z,46.72
2023-05-20T03:56:34.521Z,46.66
2023-05-20T03:57:34.517Z,47.75
2023-05-20T03:58:36.141Z,46.25
2023-05-20T03:59:34.542Z,45.32
2023-05-20T04:00:34.566Z,46.99
2023-05-20T04:01:34.621Z,42.80
2023-05-20T04:02:34.664Z,43.13
2023-05-20T04:03:34.733Z,45.69
2023-05-20T04:04:34.640Z,45.33
2023-05-20T04:05:34.848Z,43.70
2023-05-20T04:06:34.685Z,47.86
2023-05-20T04:07:34.704Z,48.02
2023-05-20T04:08:34.751Z,44.36
2023-05-20T04:09:34.767Z,44.62
2023-05-20T04:10:34.794Z,46.02
2023-05-20T04:11:34.818Z,44.44
2023-05-20T04:12:34.826Z,45.00
2023-05-20T04:13:34.902Z,42.90
2023-05-20T04:14:34.873Z,43.71
2023-05-20T04:15:35.046Z,44.01
2023-05-20T04:16:34.957Z,47.31
2023-05-20T04:17:34.960Z,45.39
2023-05-20T04:18:34.979Z,44.57
2023-05-20T04:19:35.024Z,44.53
2023-05-20T04:20:35.013Z,45.72
2023-05-20T04:21:35.012Z,44.54
2023-05-20T04:22:35.039Z,44.54
2023-05-20T04:23:35.080Z,46.22
2023-05-20T04:24:35.102Z,45.74
2023-05-20T04:25:35.236Z,45.39
2023-05-20T04:26:35.189Z,44.52
2023-05-20T04:27:35.225Z,42.96
2023-05-20T04:28:35.265Z,46.09
2023-05-20T04:29:35.277Z,44.84
2023-05-20T04:30:35.333Z,45.01
2023-05-20T04:31:35.439Z,47.89
2023-05-20T04:32:35.433Z,43.91
2023-05-20T04:33:35.420Z,45.48
2023-05-20T04:34:35.467Z,44.30
2023-05-20T04:35:35.693Z,44.17
2023-05-20T04:36:35.524Z,48.22
2023-05-20T04:37:35.557Z,45.42
2023-05-20T04:38:35.621Z,44.36
2023-05-20T04:39:35.595Z,42.20
2023-05-20T04:40:35.679Z,42.09
2023-05-20T04:41:35.681Z,44.12
2023-05-20T04:42:35.714Z,45.43
2023-05-20T04:43:36.166Z,46.68
2023-05-20T04:44:35.744Z,43.88
2023-05-20T04:45:35.861Z,39.48
2023-05-20T04:46:35.894Z,44.77
2023-05-20T04:47:35.830Z,44.58
2023-05-20T04:48:35.843Z,43.05
2023-05-20T04:49:35.871Z,42.70
2023-05-20T04:50:35.912Z,45.02
2023-05-20T04:51:35.957Z,43.28
2023-05-20T04:52:35.959Z,44.32
2023-05-20T04:53:36.039Z,45.52
2023-05-20T04:54:36.028Z,44.82
2023-05-20T04:55:36.131Z,45.13
2023-05-20T04:56:36.130Z,46.22
2023-05-20T04:57:36.183Z,46.78
2023-05-20T04:58:36.290Z,43.17
2023-05-20T04:59:36.262Z,47.01
2023-05-20T05:00:36.337Z,41.55
2023-05-20T05:01:36.425Z,44.04
2023-05-20T05:02:36.427Z,41.66
2023-05-20T05:03:36.963Z,42.84
2023-05-20T05:04:36.565Z,43.82
2023-05-20T05:05:36.540Z,42.01
2023-05-20T05:06:36.588Z,42.48
2023-05-20T05:07:36.638Z,41.34
2023-05-20T05:08:36.681Z,43.24
2023-05-20T05:09:36.763Z,44.82
2023-05-20T05:10:36.767Z,43.12
2023-05-20T05:11:36.813Z,43.37
2023-05-20T05:12:36.860Z,45.96
2023-05-20T05:13:36.904Z,44.16
2023-05-20T05:14:36.940Z,42.96
2023-05-20T05:15:37.110Z,43.41
2023-05-20T05:16:37.021Z,44.99
2023-05-20T05:17:37.093Z,45.12
2023-05-20T05:18:37.110Z,41.57
2023-05-20T05:19:37.176Z,44.11
2023-05-20T05:20:37.177Z,40.66
2023-05-20T05:21:37.228Z,39.45
2023-05-20T05:22:37.283Z,43.09
2023-05-20T05:23:37.325Z,43.77
2023-05-20T05:24:37.359Z,42.56
2023-05-20T05:25:37.415Z,42.21
2023-05-20T05:26:37.452Z,41.24
2023-05-20T05:27:37.497Z,39.45
2023-05-20T05:28:37.568Z,45.79
2023-05-20T05:29:37.636Z,42.24
2023-05-20T05:30:37.670Z,41.75
2023-05-20T05:31:37.697Z,40.65
2023-05-20T05:32:37.839Z,40.33
2023-05-20T05:33:37.802Z,40.56
2023-05-20T05:34:37.843Z,40.27
2023-05-20T05:35:37.874Z,42.81
2023-05-20T05:36:37.921Z,39.07
2023-05-20T05:37:37.958Z,43.80
2023-05-20T05:38:38.719Z,42.51
2023-05-20T05:39:38.046Z,40.50
2023-05-20T05:40:38.095Z,40.26
2023-05-20T05:41:38.145Z,40.39
2023-05-20T05:42:38.225Z,41.82
2023-05-20T05:43:38.309Z,41.59
2023-05-20T05:44:38.315Z,41.44
2023-05-20T05:45:38.361Z,44.18
2023-05-20T05:46:38.431Z,41.97
2023-05-20T05:47:38.481Z,41.54
2023-05-20T05:48:38.525Z,42.85
2023-05-20T05:49:38.573Z,42.31
2023-05-20T05:50:38.617Z,41.76
2023-05-20T05:51:39.176Z,42.25
2023-05-20T05:52:38.721Z,41.21
2023-05-20T05:53:38.784Z,43.22
2023-05-20T05:54:38.814Z,43.77
2023-05-20T05:55:38.874Z,40.44
2023-05-20T05:56:38.936Z,42.14
2023-05-20T05:57:38.975Z,44.25
2023-05-20T05:58:39.053Z,40.56
2023-05-20T05:59:39.090Z,42.11
2023-05-20T06:00:39.155Z,42.99
2023-05-20T06:01:39.218Z,41.76
2023-05-20T06:02:39.326Z,42.93
2023-05-20T06:03:39.393Z,41.42
2023-05-20T06:04:39.333Z,40.11
2023-05-20T06:05:39.369Z,41.69
2023-05-20T06:06:39.434Z,41.48
2023-05-20T06:07:39.475Z,41.10
2023-05-20T06:08:39.534Z,39.75
2023-05-20T06:09:39.578Z,43.62
2023-05-20T06:10:39.614Z,39.87
2023-05-20T06:11:39.681Z,42.80
2023-05-20T06:12:39.712Z,41.10
2023-05-20T06:13:39.764Z,39.54
2023-05-20T06:14:39.805Z,44.26
2023-05-20T06:15:39.870Z,40.18
2023-05-20T06:16:39.978Z,42.59
2023-05-20T06:17:40.013Z,42.64
2023-05-20T06:18:40.091Z,42.43
2023-05-20T06:19:40.144Z,44.51
2023-05-20T06:20:40.119Z,39.86
2023-05-20T06:21:40.140Z,39.92
2023-05-20T06:22:40.204Z,44.33
2023-05-20T06:23:40.237Z,41.41
2023-05-20T06:24:40.289Z,42.07
2023-05-20T06:25:40.340Z,42.49
2023-05-20T06:26:40.372Z,41.49
2023-05-20T06:27:40.395Z,39.48
2023-05-20T06:28:40.449Z,43.10
2023-05-20T06:29:42.389Z,44.63
2023-05-20T06:30:40.512Z,43.54
2023-05-20T06:31:40.480Z,44.62
2023-05-20T06:32:40.501Z,42.32
2023-05-20T06:33:40.478Z,41.32
2023-05-20T06:34:40.463Z,43.57
2023-05-20T06:35:40.476Z,42.28
2023-05-20T06:36:40.461Z,41.79
2023-05-20T06:37:40.461Z,45.76
2023-05-20T06:38:40.454Z,42.27
2023-05-20T06:39:40.438Z,44.09
2023-05-20T06:40:40.433Z,41.19
2023-05-20T06:41:40.453Z,40.57
2023-05-20T06:42:40.414Z,44.17
2023-05-20T06:43:40.427Z,41.57
2023-05-20T06:44:40.413Z,41.57
2023-05-20T06:45:40.410Z,40.06
2023-05-20T06:46:40.423Z,41.60
2023-05-20T06:47:40.428Z,40.68
2023-05-20T06:48:40.412Z,39.98
2023-05-20T06:49:40.386Z,42.89
2023-05-20T06:50:40.367Z,42.91
2023-05-20T06:51:40.361Z,42.83
2023-05-20T06:52:40.359Z,41.27
2023-05-20T06:53:40.377Z,43.09
2023-05-20T06:54:40.353Z,44.03
2023-05-20T06:55:40.363Z,44.24
2023-05-20T06:56:40.338Z,41.18
2023-05-20T06:57:40.327Z,42.49
2023-05-20T06:58:40.300Z,40.46
2023-05-20T06:59:40.305Z,42.51
2023-05-20T07:00:40.285Z,41.89
2023-05-20T07:01:40.295Z,40.88
2023-05-20T07:02:40.301Z,42.83
2023-05-20T07:03:40.326Z,41.81
2023-05-20T07:04:40.271Z,43.33
2023-05-20T07:05:40.280Z,42.64
2023-05-20T07:06:40.244Z,42.99
2023-05-20T07:07:40.241Z,42.27
2023-05-20T07:08:40.246Z,41.34
2023-05-20T07:09:40.250Z,41.75
2023-05-20T07:10:40.317Z,43.12
2023-05-20T07:11:40.360Z,42.41
2023-05-20T07:12:40.418Z,44.84
2023-05-20T07:13:40.474Z,44.17
2023-05-20T07:14:40.491Z,41.83
2023-05-20T07:15:40.609Z,41.50
2023-05-20T07:16:40.752Z,40.46
2023-05-20T07:17:40.709Z,42.60
2023-05-20T07:18:40.767Z,42.72
2023-05-20T07:19:40.743Z,42.44
2023-05-20T07:20:40.805Z,41.56
2023-05-20T07:21:40.830Z,42.34
2023-05-20T07:22:40.886Z,40.88
2023-05-20T07:23:40.946Z,39.73
2023-05-20T07:24:40.997Z,43.12
2023-05-20T07:25:41.098Z,43.08
2023-05-20T07:26:41.097Z,42.24
2023-05-20T07:27:41.142Z,43.57
2023-05-20T07:28:41.231Z,39.41
2023-05-20T07:29:41.223Z,42.02
2023-05-20T07:30:41.263Z,40.67
2023-05-20T07:31:41.404Z,39.92
2023-05-20T07:32:41.401Z,42.01
2023-05-20T07:33:41.450Z,40.77
2023-05-20T07:34:41.437Z,39.50
2023-05-20T07:35:41.478Z,42.06
2023-05-20T07:36:41.531Z,40.35
2023-05-20T07:37:41.589Z,43.08
2023-05-20T07:38:47.230Z,41.30
2023-05-20T07:39:42.597Z,41.49
2023-05-20T07:40:41.589Z,41.84
2023-05-20T07:41:41.586Z,42.37
2023-05-20T07:42:41.568Z,42.16
2023-05-20T07:43:41.599Z,45.10
2023-05-20T07:44:41.580Z,42.41
2023-05-20T07:45:41.644Z,45.16
2023-05-20T07:46:41.706Z,41.29
2023-05-20T07:47:41.595Z,41.56
2023-05-20T07:48:41.553Z,41.59
2023-05-20T07:49:41.558Z,42.66
2023-05-20T07:50:41.610Z,42.40
2023-05-20T07:51:41.660Z,41.42
2023-05-20T07:52:55.314Z,41.86
2023-05-20T07:53:42.710Z,42.08
2023-05-20T07:54:41.722Z,42.30
2023-05-20T07:55:41.690Z,43.39
2023-05-20T07:56:41.690Z,41.36
2023-05-20T07:57:43.002Z,41.90
2023-05-20T07:58:41.680Z,42.91
2023-05-20T07:59:41.662Z,41.02
2023-05-20T08:00:41.661Z,43.39
2023-05-20T08:01:41.649Z,42.67
2023-05-20T08:02:41.776Z,42.60
2023-05-20T08:03:41.819Z,40.81
2023-05-20T08:04:41.669Z,40.88
2023-05-20T08:05:41.639Z,40.99
2023-05-20T08:06:41.624Z,43.26
2023-05-20T08:07:41.639Z,42.01
2023-05-20T08:08:41.597Z,39.77
2023-05-20T08:09:41.597Z,39.94
2023-05-20T08:10:41.588Z,38.30
2023-05-20T08:11:41.636Z,40.26
2023-05-20T08:12:41.588Z,40.19
2023-05-20T08:13:41.567Z,40.94
2023-05-20T08:14:41.560Z,39.71
2023-05-20T08:15:41.543Z,41.05
2023-05-20T08:16:41.555Z,40.73
2023-05-20T08:17:41.546Z,39.10
2023-05-20T08:18:41.560Z,39.73
2023-05-20T08:19:41.529Z,38.54
2023-05-20T08:20:41.512Z,37.24
2023-05-20T08:21:41.488Z,38.37
2023-05-20T08:22:41.492Z,36.80
2023-05-20T08:23:41.495Z,39.77
2023-05-20T08:24:41.467Z,39.18
2023-05-20T08:25:41.482Z,40.62
2023-05-20T08:26:41.465Z,41.93
2023-05-20T08:27:41.452Z,39.21
2023-05-20T08:28:41.438Z,40.32
2023-05-20T08:29:41.439Z,38.23
2023-05-20T08:30:41.515Z,42.29
2023-05-20T08:31:41.466Z,39.86
2023-05-20T08:32:41.473Z,40.36
2023-05-20T08:33:41.413Z,38.72
2023-05-20T08:34:41.426Z,40.35
2023-05-20T08:35:41.396Z,39.27
2023-05-20T08:36:41.398Z,37.16
2023-05-20T08:37:41.377Z,39.42
2023-05-20T08:38:41.394Z,37.43
2023-05-20T08:39:41.365Z,36.75
2023-05-20T08:40:41.356Z,41.67
2023-05-20T08:41:41.353Z,38.64
2023-05-20T08:42:41.347Z,40.09
2023-05-20T08:43:41.343Z,39.42
2023-05-20T08:44:41.330Z,38.53
2023-05-20T08:45:41.324Z,43.67
2023-05-20T08:46:41.392Z,39.24
2023-05-20T08:47:41.370Z,39.60
2023-05-20T08:48:41.305Z,38.44
2023-05-20T08:49:41.332Z,38.90
2023-05-20T08:50:41.373Z,37.65
2023-05-20T08:51:41.418Z,41.87
2023-05-20T08:52:41.468Z,40.48
2023-05-20T08:53:41.513Z,40.68
2023-05-20T08:54:41.537Z,41.30
2023-05-20T08:55:41.601Z,39.44
2023-05-20T08:56:41.639Z,39.77
2023-05-20T08:57:41.656Z,42.88
2023-05-20T08:58:41.714Z,38.60
2023-05-20T08:59:41.765Z,40.82
2023-05-20T09:00:41.778Z,40.87
2023-05-20T09:01:41.840Z,39.45
2023-05-20T09:02:41.883Z,41.62
2023-05-20T09:03:41.908Z,40.94
2023-05-20T09:04:41.982Z,41.62
2023-05-20T09:05:41.954Z,41.10
2023-05-20T09:06:41.983Z,39.81
2023-05-20T09:07:42.009Z,40.29
2023-05-20T09:08:42.065Z,40.98
2023-05-20T09:09:42.101Z,37.89
2023-05-20T09:10:42.107Z,38.49
2023-05-20T09:11:42.135Z,40.17
2023-05-20T09:12:42.154Z,38.16
2023-05-20T09:13:42.230Z,38.46
2023-05-20T09:14:42.218Z,39.40
2023-05-20T09:15:42.250Z,37.44
2023-05-20T09:16:42.336Z,39.04
2023-05-20T09:17:42.368Z,41.05
2023-05-20T09:18:42.362Z,38.93
2023-05-20T09:19:42.366Z,39.80
2023-05-20T09:20:42.369Z,40.59
2023-05-20T09:21:42.412Z,39.31
2023-05-20T09:22:42.407Z,40.80
2023-05-20T09:23:42.438Z,38.07
2023-05-20T09:24:42.461Z,40.26
2023-05-20T09:25:42.492Z,41.04
2023-05-20T09:26:42.539Z,38.93
2023-05-20T09:27:42.530Z,38.90
2023-05-20T09:28:42.570Z,37.97
2023-05-20T09:29:42.583Z,37.92
2023-05-20T09:30:44.498Z,37.14
2023-05-20T09:31:42.674Z,39.02
2023-05-20T09:32:42.637Z,38.32
2023-05-20T09:33:42.596Z,37.86
2023-05-20T09:34:42.599Z,39.44
2023-05-20T09:35:42.577Z,39.85
2023-05-20T09:36:42.576Z,38.69
2023-05-20T09:37:42.565Z,36.97
2023-05-20T09:38:42.563Z,38.25
2023-05-20T09:39:42.541Z,37.49
2023-05-20T09:40:42.547Z,38.84
2023-05-20T09:41:42.539Z,38.54
2023-05-20T09:42:42.503Z,38.31
2023-05-20T09:43:42.564Z,35.90
2023-05-20T09:44:42.529Z,37.53
2023-05-20T09:45:42.560Z,38.01
2023-05-20T09:46:42.508Z,36.29
2023-05-20T09:47:42.568Z,40.11
2023-05-20T09:48:42.496Z,38.86
2023-05-20T09:49:42.492Z,38.54
2023-05-20T09:50:42.481Z,37.56
2023-05-20T09:51:42.462Z,39.21
2023-05-20T09:52:42.470Z,38.33
2023-05-20T09:53:42.463Z,41.79
2023-05-20T09:54:42.444Z,38.30
2023-05-20T09:55:42.430Z,37.62
2023-05-20T09:56:42.445Z,37.40
2023-05-20T09:57:42.432Z,36.64
2023-05-20T09:58:42.825Z,39.99
2023-05-20T09:59:42.454Z,38.82
2023-05-20T10:00:42.414Z,41.52
2023-05-20T10:01:42.516Z,39.45
2023-05-20T10:02:42.523Z,42.21
2023-05-20T10:03:44.410Z,39.13
2023-05-20T10:04:42.404Z,42.03
2023-05-20T10:05:42.373Z,39.68
2023-05-20T10:06:42.380Z,40.49
2023-05-20T10:07:42.758Z,40.60
2023-05-20T10:08:42.357Z,38.91
2023-05-20T10:09:42.349Z,39.38
2023-05-20T10:10:42.350Z,37.99
2023-05-20T10:11:42.340Z,35.90
2023-05-20T10:12:42.332Z,35.70
2023-05-20T10:13:42.319Z,35.16
2023-05-20T10:14:42.344Z,38.55
2023-05-20T10:15:42.336Z,38.23
2023-05-20T10:16:42.288Z,36.42
2023-05-20T10:17:42.311Z,36.32
2023-05-20T10:18:42.340Z,36.75
2023-05-20T10:19:42.314Z,34.80
2023-05-20T10:20:42.319Z,34.46
2023-05-20T10:21:42.343Z,37.93
2023-05-20T10:22:42.385Z,39.46
2023-05-20T10:23:42.398Z,35.78
2023-05-20T10:24:42.412Z,35.31
2023-05-20T10:25:42.400Z,37.44
2023-05-20T10:26:42.441Z,36.65
2023-05-20T10:27:42.423Z,35.06
2023-05-20T10:28:42.439Z,34.21
2023-05-20T10:29:42.442Z,34.88
2023-05-20T10:30:44.389Z,32.83
2023-05-20T10:31:42.471Z,33.81
2023-05-20T10:32:42.541Z,34.81
2023-05-20T10:33:42.573Z,35.42
2023-05-20T10:34:42.552Z,36.66
2023-05-20T10:35:42.544Z,34.52
2023-05-20T10:36:42.789Z,35.27
2023-05-20T10:37:42.570Z,31.30
2023-05-20T10:38:42.575Z,35.06
2023-05-20T10:39:42.616Z,33.17
2023-05-20T10:40:42.601Z,31.34
2023-05-20T10:41:42.596Z,29.98
2023-05-20T10:42:42.613Z,30.95
2023-05-20T10:43:42.613Z,31.97
2023-05-20T10:44:42.637Z,33.01
2023-05-20T10:45:42.636Z,31.70
2023-05-20T10:47:43.684Z,33.55
2023-05-20T10:48:42.759Z,33.59
2023-05-20T10:49:42.611Z,34.33
2023-05-20T10:50:42.603Z,32.15
2023-05-20T10:51:42.601Z,33.09
2023-05-20T10:52:42.601Z,35.94
2023-05-20T10:53:42.603Z,35.54
2023-05-20T10:54:42.581Z,35.14
2023-05-20T10:55:42.587Z,36.35
2023-05-20T10:56:42.572Z,36.42
2023-05-20T10:57:42.561Z,35.14
2023-05-20T10:58:42.550Z,37.75
2023-05-20T10:59:42.551Z,36.66
2023-05-20T11:00:42.597Z,34.16
2023-05-20T11:01:42.667Z,34.92
2023-05-20T11:02:42.578Z,34.35
2023-05-20T11:03:42.620Z,34.57
2023-05-20T11:04:42.522Z,36.35
2023-05-20T11:05:42.511Z,37.31
2023-05-20T11:06:42.518Z,38.58
2023-05-20T11:07:42.501Z,38.14
2023-05-20T11:08:42.520Z,38.12
2023-05-20T11:09:42.493Z,35.76
2023-05-20T11:10:42.489Z,37.95
2023-05-20T11:11:42.500Z,38.10
2023-05-20T11:12:42.528Z,36.88
2023-05-20T11:13:42.515Z,37.20
2023-05-20T11:14:42.570Z,37.17
2023-05-20T11:15:42.600Z,36.56
2023-05-20T11:16:42.613Z,36.21
2023-05-20T11:17:42.660Z,37.91
2023-05-20T11:18:42.673Z,36.95
2023-05-20T11:19:42.629Z,36.98
2023-05-20T11:20:42.639Z,36.50
2023-05-20T11:21:42.663Z,37.28
2023-05-20T11:22:42.684Z,34.97
2023-05-20T11:23:42.676Z,37.29
2023-05-20T11:24:42.713Z,38.90
2023-05-20T11:25:42.718Z,35.79
2023-05-20T11:26:42.785Z,38.92
2023-05-20T11:27:42.818Z,37.96
2023-05-20T11:28:42.835Z,35.15
2023-05-20T11:29:42.840Z,38.73
2023-05-20T11:30:42.864Z,36.14
2023-05-20T11:31:42.851Z,36.31
2023-05-20T11:32:42.913Z,37.01
2023-05-20T11:33:42.894Z,35.77
2023-05-20T11:34:42.878Z,36.61
2023-05-20T11:35:42.882Z,39.38
2023-05-20T11:36:42.892Z,36.91
2023-05-20T11:37:42.892Z,36.24
2023-05-20T11:38:42.926Z,36.16
2023-05-20T11:39:42.944Z,36.60
2023-05-20T11:40:50.542Z,34.92
2023-05-20T11:41:43.946Z,35.26
2023-05-20T11:42:42.943Z,35.78
2023-05-20T11:43:42.998Z,35.86
2023-05-20T11:44:42.916Z,38.07
2023-05-20T11:45:42.930Z,36.94
2023-05-20T11:46:43.044Z,36.19
2023-05-20T11:47:42.956Z,36.57
2023-05-20T11:48:42.904Z,37.78
2023-05-20T11:49:42.915Z,36.09
2023-05-20T11:50:42.893Z,36.93
2023-05-20T11:51:42.902Z,39.03
2023-05-20T11:52:42.869Z,40.44
2023-05-20T11:53:42.880Z,36.67
2023-05-20T11:54:42.877Z,40.11
2023-05-20T11:55:42.898Z,37.20
2023-05-20T11:56:42.846Z,38.49
2023-05-20T11:57:42.842Z,37.60
2023-05-20T11:58:42.854Z,40.72
2023-05-20T11:59:42.846Z,38.54
2023-05-20T12:00:50.581Z,36.96
2023-05-20T12:01:43.857Z,37.22
2023-05-20T12:02:42.889Z,37.49
2023-05-20T12:03:42.937Z,37.66
2023-05-20T12:04:42.911Z,38.88
2023-05-20T12:05:42.798Z,37.79
2023-05-20T12:06:42.785Z,37.91
2023-05-20T12:07:42.788Z,36.93
2023-05-20T12:08:42.762Z,38.56
2023-05-20T12:09:42.777Z,39.47
2023-05-20T12:10:42.752Z,39.00
2023-05-20T12:11:42.759Z,40.89
2023-05-20T12:12:42.742Z,39.48
2023-05-20T12:13:42.740Z,38.05
2023-05-20T12:14:42.753Z,39.54
2023-05-20T12:15:42.812Z,36.18
2023-05-20T12:16:42.761Z,38.95
2023-05-20T12:17:42.768Z,35.63
2023-05-20T12:18:42.750Z,35.32
2023-05-20T12:19:42.716Z,35.55
2023-05-20T12:20:42.687Z,37.42
2023-05-20T12:21:42.706Z,38.30
2023-05-20T12:22:42.703Z,36.10
2023-05-20T12:23:42.681Z,35.06
2023-05-20T12:24:42.677Z,35.12
2023-05-20T12:25:42.651Z,37.46
2023-05-20T12:26:42.636Z,37.62
2023-05-20T12:27:42.654Z,35.70
2023-05-20T12:28:42.620Z,37.32
2023-05-20T12:29:42.631Z,38.46
2023-05-20T12:30:42.644Z,36.74
2023-05-20T12:31:42.717Z,36.54
2023-05-20T12:32:42.720Z,36.68
2023-05-20T12:33:42.671Z,36.75
2023-05-20T12:34:42.728Z,37.49
2023-05-20T12:35:42.692Z,37.46
2023-05-20T12:36:42.714Z,36.33
2023-05-20T12:37:42.729Z,36.12
2023-05-20T12:38:42.770Z,34.64
2023-05-20T12:39:42.781Z,39.27
2023-05-20T12:40:42.773Z,36.04
2023-05-20T12:41:42.792Z,33.54
2023-05-20T12:42:42.807Z,33.43
2023-05-20T12:43:42.845Z,33.77
2023-05-20T12:44:42.811Z,32.97
2023-05-20T12:45:42.848Z,34.31
2023-05-20T12:46:42.863Z,36.01
2023-05-20T12:47:42.889Z,33.59
2023-05-20T12:48:42.886Z,34.30
2023-05-20T12:49:42.849Z,35.42
2023-05-20T12:50:42.873Z,35.11
2023-05-20T12:51:42.873Z,33.94
2023-05-20T12:52:42.889Z,35.46
2023-05-20T12:53:42.929Z,36.68